Time;durP1;ratioP1;P1;durP2;ratioP2;P2;SDS_P1;SDS_P2;PMS_P1;PMS_P2;Temp;Humidity;BMP_temperature;BMP_pressure;BME280_temperature;BME280_humidity;BME280_pressure;Samples;Min_cycle;Max_cycle;Signal;HPM_P1;HPM_P2
2023/08/24 00:01:45;;;;;;;2.78;1.38;;;;;;;10.91;64.51;95904.25;6297373;28;20049;-70
2023/08/24 00:04:49;;;;;;;3.60;1.20;;;;;;;10.86;64.90;95911.69;6297142;28;20040;-70
2023/08/24 00:07:53;;;;;;;2.15;1.40;;;;;;;10.81;64.91;95913.84;6297602;28;20048;-70
2023/08/24 00:10:57;;;;;;;1.48;1.30;;;;;;;10.70;64.93;95915.56;6297721;28;20491;-70
2023/08/24 00:14:02;;;;;;;2.10;1.30;;;;;;;10.66;65.06;95924.66;6297489;28;20040;-70
2023/08/24 00:17:11;;;;;;;1.55;1.45;;;;;;;10.62;65.39;95928.50;6280129;28;20419;-70
2023/08/24 00:20:15;;;;;;;2.20;1.30;;;;;;;10.59;65.52;95930.53;6296459;28;20048;-70
2023/08/24 00:23:18;;;;;;;5.10;1.13;;;;;;;10.49;65.61;95930.44;6297737;28;20059;-70
2023/08/24 00:26:24;;;;;;;1.20;1.00;;;;;;;10.42;65.98;95931.91;6296147;28;20044;-70
2023/08/24 00:29:31;;;;;;;1.45;1.00;;;;;;;10.39;66.19;95934.75;6296728;28;20044;-70
2023/08/24 00:32:34;;;;;;;2.63;1.33;;;;;;;10.30;66.00;95926.66;6296566;28;20051;-70
2023/08/24 00:35:38;;;;;;;1.60;1.48;;;;;;;10.31;66.09;95936.19;6296210;28;20049;-70
2023/08/24 00:38:44;;;;;;;1.13;0.95;;;;;;;9.86;66.25;95875.72;6297037;28;20495;-70
2023/08/24 00:41:45;;;;;;;2.20;1.52;;;;;;;10.21;66.47;95932.56;6260923;28;20060;-70
2023/08/24 00:44:52;;;;;;;2.47;1.38;;;;;;;10.23;66.27;95941.19;6278445;28;20507;-70
2023/08/24 00:47:55;;;;;;;3.00;1.98;;;;;;;10.39;65.97;95945.25;6296331;28;20044;-70
2023/08/24 00:51:02;;;;;;;3.42;1.70;;;;;;;10.42;65.53;95945.88;6296552;28;20049;-70
2023/08/24 00:54:05;;;;;;;2.22;1.25;;;;;;;10.47;65.35;95941.09;6295864;28;20052;-70
2023/08/24 00:57:10;;;;;;;1.75;1.10;;;;;;;10.51;65.49;95949.56;6296455;28;20045;-70
2023/08/24 01:00:11;;;;;;;3.80;1.65;;;;;;;10.47;65.47;95956.00;6295759;28;20511;-70
2023/08/24 01:03:15;;;;;;;1.48;1.38;;;;;;;10.42;65.79;95945.06;6296266;28;20400;-70
2023/08/24 01:06:21;;;;;;;4.30;1.73;;;;;;;10.43;65.65;95949.34;6296346;28;20495;-71
2023/08/24 01:09:27;;;;;;;4.43;2.03;;;;;;;10.37;65.54;95952.47;6296283;28;20044;-70
2023/08/24 01:12:52;;;;;;;4.00;2.05;;;;;;;10.42;65.92;95966.09;6296060;28;20048;-70
2023/08/24 01:16:15;;;;;;;5.35;2.20;;;;;;;10.38;66.00;95959.38;6295909;28;20568;-70
2023/08/24 01:19:43;;;;;;;3.63;1.70;;;;;;;10.41;65.76;95965.22;6296180;28;20551;-70
2023/08/24 01:23:07;;;;;;;6.05;1.55;;;;;;;10.45;65.70;95968.47;6295407;28;20047;-70
2023/08/24 01:26:17;;;;;;;1.65;1.42;;;;;;;10.55;65.26;95977.28;6295940;28;20162;-70
2023/08/24 01:29:23;;;;;;;2.97;1.52;;;;;;;10.71;64.88;95969.88;6277824;28;20048;-70
2023/08/24 01:32:29;;;;;;;3.38;1.30;;;;;;;10.90;64.44;95976.28;6295572;28;20573;-70
2023/08/24 01:35:33;;;;;;;5.15;1.70;;;;;;;10.98;64.12;95963.31;6295737;28;20040;-70
2023/08/24 01:38:36;;;;;;;2.95;1.60;;;;;;;11.12;63.73;95981.47;6295588;28;20040;-71
2023/08/24 01:41:51;;;;;;;3.40;1.38;;;;;;;11.12;63.25;95975.38;6277392;28;20052;-70
2023/08/24 01:45:02;;;;;;;1.75;1.27;;;;;;;11.13;62.80;95983.16;6294603;28;20432;-70
2023/08/24 01:48:05;;;;;;;2.22;1.15;;;;;;;11.16;62.84;95975.00;6294007;28;20048;-70
2023/08/24 01:51:13;;;;;;;2.05;1.10;;;;;;;11.27;62.61;95989.13;6295283;28;20041;-70
2023/08/24 01:54:17;;;;;;;3.85;1.40;;;;;;;11.40;62.45;95984.50;6294665;28;20045;-70
2023/08/24 01:57:18;;;;;;;1.75;1.30;;;;;;;11.54;61.87;95975.44;6294970;28;20047;-70
2023/08/24 02:00:22;;;;;;;;;;;;;;;11.59;61.81;95974.09;6295254;28;20044;-70
2023/08/24 02:03:28;;;;;;;1.92;1.00;;;;;;;11.62;61.52;95968.56;6294951;28;20398;-70
2023/08/24 02:06:35;;;;;;;1.58;1.45;;;;;;;11.68;61.64;95973.31;6294024;28;20511;-70
2023/08/24 02:09:37;;;;;;;3.83;1.80;;;;;;;11.68;61.35;95968.06;6294031;28;20056;-70
2023/08/24 02:12:40;;;;;;;2.15;1.35;;;;;;;11.69;61.23;95969.75;6294678;28;20040;-70
2023/08/24 02:15:45;;;;;;;2.13;1.45;;;;;;;11.81;61.13;95969.69;6294525;28;20058;-70
2023/08/24 02:18:48;;;;;;;2.30;1.48;;;;;;;11.98;60.66;95970.94;6293517;28;20103;-70
2023/08/24 02:21:56;;;;;;;3.95;1.85;;;;;;;12.15;60.24;95970.31;6277044;28;20048;-70
2023/08/24 02:24:58;;;;;;;2.63;1.38;;;;;;;12.37;59.82;95979.88;6293977;28;20400;-70
2023/08/24 02:27:59;;;;;;;1.80;1.13;;;;;;;12.63;59.37;95984.69;6294087;28;20067;-70
2023/08/24 02:31:05;;;;;;;2.47;1.25;;;;;;;12.93;58.76;95986.44;6293438;28;20427;-70
2023/08/24 02:34:10;;;;;;;2.90;1.10;;;;;;;13.23;57.85;95977.59;6293715;28;20044;-70
2023/08/24 02:37:13;;;;;;;3.33;1.10;;;;;;;13.47;57.20;95971.91;6276268;28;20060;-70
2023/08/24 02:40:20;;;;;;;2.45;1.10;;;;;;;13.69;56.61;95978.72;6294387;28;20052;-70
2023/08/24 02:43:24;;;;;;;51.65;26.88;;;;;;;13.91;56.37;95983.72;6275342;28;20059;-70
2023/08/24 02:46:27;;;;;;;17.83;9.93;;;;;;;14.15;55.91;95974.47;6293033;28;20551;-70
2023/08/24 02:49:32;;;;;;;4.13;3.50;;;;;;;14.33;55.41;95978.03;6292517;28;20052;-70
2023/08/24 02:52:40;;;;;;;3.30;1.77;;;;;;;14.49;55.19;95981.88;6276759;28;20052;-70
2023/08/24 02:55:46;;;;;;;3.17;1.95;;;;;;;14.59;54.81;95982.72;6294120;28;20049;-70
2023/08/24 02:58:50;;;;;;;5.55;2.22;;;;;;;14.62;54.76;95976.28;6293179;28;20052;-70
2023/08/24 03:01:54;;;;;;;2.28;1.55;;;;;;;14.72;54.60;95985.84;6275522;28;20044;-71
2023/08/24 03:04:56;;;;;;;3.30;1.40;;;;;;;14.70;54.57;95985.16;6292656;28;20060;-70
2023/08/24 03:07:58;;;;;;;4.03;1.40;;;;;;;14.64;54.72;95980.47;6293714;28;20535;-70
2023/08/24 03:11:05;;;;;;;1.92;1.48;;;;;;;14.60;54.90;95990.47;6293740;28;20499;-70
2023/08/24 03:14:09;;;;;;;4.65;1.73;;;;;;;14.66;54.86;95993.53;6292983;28;20415;-70
2023/08/24 03:17:10;;;;;;;5.43;1.88;;;;;;;14.72;54.84;95998.25;6293115;28;20455;-70
2023/08/24 03:20:14;;;;;;;5.68;1.95;;;;;;;14.76;54.77;95994.34;6275862;28;20040;-71
2023/08/24 03:23:16;;;;;;;4.53;2.10;;;;;;;14.81;55.04;95989.44;6292879;28;20041;-70
2023/08/24 03:26:23;;;;;;;4.15;1.58;;;;;;;14.86;55.37;95996.91;6293409;28;20042;-70
2023/08/24 03:29:29;;;;;;;3.28;1.80;;;;;;;14.90;55.22;96003.59;6293528;28;20048;-71
2023/08/24 03:32:39;;;;;;;13.15;6.80;;;;;;;14.91;55.43;96007.91;6293681;28;20064;-70
2023/08/24 03:35:43;;;;;;;4.60;3.00;;;;;;;14.93;55.83;96001.50;6292679;28;20063;-70
2023/08/24 03:38:49;;;;;;;3.15;2.13;;;;;;;14.89;56.32;95993.97;6293490;28;20430;-70
2023/08/24 03:41:52;;;;;;;5.93;3.88;;;;;;;14.88;56.83;96005.56;6293231;28;20052;-70
2023/08/24 03:44:56;;;;;;;6.25;2.00;;;;;;;14.86;57.09;95999.56;6293306;28;20521;-70
2023/08/24 03:48:00;;;;;;;3.42;2.53;;;;;;;14.87;56.94;96002.09;6292918;28;20057;-70
2023/08/24 03:51:03;;;;;;;2.92;1.17;;;;;;;14.76;56.65;95976.63;6292471;28;20522;-70
2023/08/24 03:54:05;;;;;;;2.13;1.40;;;;;;;14.96;56.01;95989.78;6292313;28;20053;-70
2023/08/24 03:57:08;;;;;;;2.25;1.20;;;;;;;14.94;55.47;95997.84;6293177;28;20045;-69
2023/08/24 04:00:14;;;;;;;2.10;1.10;;;;;;;14.98;54.90;95993.13;6292399;28;20087;-69
2023/08/24 04:03:17;;;;;;;1.13;0.77;;;;;;;15.00;54.29;96001.72;6292145;28;20053;-69
2023/08/24 04:06:21;;;;;;;0.93;0.82;;;;;;;15.01;54.08;95995.47;6293037;28;20053;-70
2023/08/24 04:09:27;;;;;;;5.38;1.55;;;;;;;15.06;52.99;95995.84;6293047;28;20469;-69
2023/08/24 04:12:35;;;;;;;2.47;0.88;;;;;;;15.12;51.65;95995.25;6292114;28;20125;-71
2023/08/24 04:15:36;;;;;;;1.77;0.90;;;;;;;15.31;51.31;95991.63;6294077;28;20052;-71
2023/08/24 04:18:43;;;;;;;1.05;0.60;;;;;;;15.43;50.63;95998.41;6297506;28;20040;-72
2023/08/24 04:21:47;;;;;;;0.95;0.85;;;;;;;15.51;50.20;96000.28;6296654;28;20048;-71
2023/08/24 04:24:48;;;;;;;1.17;0.77;;;;;;;15.63;49.11;95999.06;6296519;28;20049;-69
2023/08/24 04:27:52;;;;;;;1.48;0.70;;;;;;;15.69;48.20;95993.19;6296537;28;20523;-69
2023/08/24 04:30:59;;;;;;;1.75;0.50;;;;;;;15.80;47.58;95988.66;6296854;28;20048;-69
2023/08/24 04:34:00;;;;;;;1.50;0.60;;;;;;;15.92;47.19;95992.72;6296159;28;20057;-70
2023/08/24 04:37:09;;;;;;;0.93;0.50;;;;;;;16.03;46.38;95997.78;6296934;28;20040;-70
2023/08/24 04:40:13;;;;;;;3.00;2.17;;;;;;;16.15;45.97;95996.53;6296919;28;20045;-69
2023/08/24 04:43:19;;;;;;;4.05;1.65;;;;;;;16.30;44.83;96002.09;6295678;28;20051;-69
2023/08/24 04:46:23;;;;;;;3.92;1.33;;;;;;;16.36;44.91;95990.00;6296025;28;20095;-69
2023/08/24 04:49:28;;;;;;;2.03;0.95;;;;;;;16.52;44.08;95987.47;6296120;28;20077;-69
2023/08/24 04:52:34;;;;;;;2.38;1.30;;;;;;;16.68;43.39;95991.19;6296649;28;20040;-69
2023/08/24 04:55:36;;;;;;;0.77;0.50;;;;;;;16.86;41.73;95986.66;6295184;28;20531;-69
2023/08/24 04:58:39;;;;;;;0.60;0.40;;;;;;;16.97;40.52;95983.69;6296333;28;20045;-69
2023/08/24 05:01:44;;;;;;;0.80;0.43;;;;;;;17.25;40.47;95991.44;6296266;28;20415;-69
2023/08/24 05:04:50;;;;;;;1.38;0.30;;;;;;;17.50;39.56;95979.84;6296362;28;20491;-69
2023/08/24 05:07:54;;;;;;;1.05;0.65;;;;;;;17.94;38.16;95982.22;6278199;28;20052;-69
2023/08/24 05:10:56;;;;;;;1.75;0.50;;;;;;;18.24;37.06;95993.19;6294491;28;20476;-71
2023/08/24 05:14:03;;;;;;;3.70;0.70;;;;;;;18.82;36.10;95986.75;6295758;28;20040;-71
2023/08/24 05:17:08;;;;;;;3.83;2.15;;;;;;;20.70;33.73;95991.78;6295685;28;20495;-70
2023/08/24 05:20:13;;;;;;;0.98;0.52;;;;;;;24.80;28.34;95991.13;6295729;28;20517;-69
2023/08/24 05:23:14;;;;;;;0.80;0.60;;;;;;;28.55;24.11;95998.13;6295520;28;20043;-70
2023/08/24 05:26:24;;;;;;;1.90;0.88;;;;;;;31.30;21.19;95996.25;6295334;28;20075;-70
2023/08/24 05:29:28;;;;;;;1.92;0.38;;;;;;;31.69;20.50;95993.50;6295486;28;20450;-70
2023/08/24 05:32:29;;;;;;;1.60;0.68;;;;;;;31.96;20.13;95995.44;6295741;28;20415;-70
2023/08/24 05:35:35;;;;;;;4.47;0.25;;;;;;;31.47;19.52;95965.50;6294129;28;20040;-70
2023/08/24 05:38:46;;;;;;;1.48;0.50;;;;;;;30.62;19.61;95983.84;6295369;28;20797;-70
2023/08/24 05:41:53;;;;;;;0.70;0.50;;;;;;;29.44;20.97;95984.44;6295366;28;20488;-72
2023/08/24 05:44:57;;;;;;;1.02;0.50;;;;;;;30.45;20.49;95978.41;6294957;28;20044;-70
2023/08/24 05:47:58;;;;;;;1.05;0.43;;;;;;;31.10;19.39;95991.38;6293968;28;20123;-70
2023/08/24 05:51:02;;;;;;;1.00;0.40;;;;;;;30.97;19.07;95958.31;6294978;28;20510;-69
2023/08/24 05:54:11;;;;;;;3.30;1.30;;;;;;;31.84;18.90;95994.75;6294943;28;20531;-70
2023/08/24 05:57:17;;;;;;;1.15;0.68;;;;;;;32.82;17.89;95989.97;6294907;28;20499;-70
2023/08/24 06:00:18;;;;;;;1.70;0.40;;;;;;;34.48;16.52;96003.97;6294108;28;20045;-70
2023/08/24 06:03:22;;;;;;;1.17;0.40;;;;;;;35.53;14.77;96008.81;6294663;28;20036;-70
2023/08/24 06:06:25;;;;;;;0.60;0.20;;;;;;;35.84;14.37;95997.72;6294779;28;20049;-71
2023/08/24 06:09:32;;;;;;;1.98;0.70;;;;;;;36.11;14.21;95995.41;6294533;28;20496;-70
2023/08/24 06:12:39;;;;;;;0.28;0.20;;;;;;;37.59;13.40;96003.47;6294341;28;20395;-70
2023/08/24 06:15:42;;;;;;;0.80;0.50;;;;;;;38.87;12.30;96009.91;6294319;28;20041;-70
2023/08/24 06:18:43;;;;;;;1.10;0.40;;;;;;;40.31;11.56;96005.97;6293497;28;20135;-70
2023/08/24 06:21:53;;;;;;;6.10;2.45;;;;;;;41.15;10.75;96010.00;6294274;28;20087;-70
2023/08/24 06:25:00;;;;;;;5.65;1.20;;;;;;;41.41;10.63;95997.13;6294056;28;20040;-70
2023/08/24 06:28:04;;;;;;;0.85;0.40;;;;;;;42.59;10.47;96007.47;6293905;28;20078;-70
2023/08/24 06:31:07;;;;;;;0.38;0.30;;;;;;;43.87;9.09;96003.06;6276314;28;20122;-71
2023/08/24 06:34:11;;;;;;;1.55;0.30;;;;;;;44.09;8.93;96002.78;6294234;28;20166;-71
2023/08/24 06:37:16;;;;;;;1.92;0.20;;;;;;;43.71;9.21;96009.19;6293424;28;20037;-71
2023/08/24 06:40:18;;;;;;;4.68;2.08;;;;;;;44.86;8.48;96004.47;6293904;28;20044;-71
2023/08/24 06:43:22;;;;;;;0.85;0.43;;;;;;;43.09;8.98;96003.34;6293140;28;20048;-70
2023/08/24 06:46:23;;;;;;;2.30;0.40;;;;;;;41.61;9.80;95995.75;6294078;28;20170;-71
2023/08/24 06:49:26;;;;;;;;;;;;;;;41.90;11.12;96002.72;6293079;28;20053;-70
2023/08/24 06:52:30;;;;;;;0.30;0.20;;;;;;;38.89;11.14;95980.97;6293680;28;20315;-70
2023/08/24 06:55:31;;;;;;;;;;;;;;;37.45;12.69;95982.19;6294325;28;20041;-70
2023/08/24 06:58:37;;;;;;;0.50;0.20;;;;;;;36.36;12.85;95974.44;6293815;28;19920;-69
2023/08/24 07:01:40;;;;;;;1.10;0.20;;;;;;;37.53;11.95;95989.78;6292788;28;20044;-72
2023/08/24 07:04:45;;;;;;;0.50;0.10;;;;;;;39.20;11.21;95981.22;6294076;28;20152;-72
2023/08/24 07:07:49;;;;;;;1.45;0.30;;;;;;;38.59;11.09;95977.63;6292986;28;20414;-70
2023/08/24 07:10:57;;;;;;;0.40;0.30;;;;;;;37.29;11.73;95975.25;6293319;28;20052;-70
2023/08/24 07:14:01;;;;;;;1.25;0.40;;;;;;;36.67;12.63;95976.97;6293739;28;20044;-70
2023/08/24 07:17:06;;;;;;;1.67;0.73;;;;;;;36.96;12.42;95977.75;6293742;28;20109;-70
2023/08/24 07:20:11;;;;;;;0.50;0.40;;;;;;;35.40;12.96;95982.84;6292174;28;20181;-71
2023/08/24 07:23:13;;;;;;;1.15;0.50;;;;;;;36.57;12.41;95984.13;6292281;28;20051;-71
2023/08/24 07:26:17;;;;;;;1.02;0.28;;;;;;;36.91;12.69;95982.47;6292686;28;20533;-71
2023/08/24 07:29:23;;;;;;;1.50;0.93;;;;;;;37.66;12.04;95990.22;6293634;28;20041;-71
2023/08/24 07:32:26;;;;;;;1.75;0.32;;;;;;;35.57;12.60;95971.59;6292519;28;20044;-71
2023/08/24 07:35:35;;;;;;;1.50;1.08;;;;;;;34.13;13.89;95970.09;6275987;28;20449;-71
2023/08/24 07:38:37;;;;;;;3.13;1.50;;;;;;;33.92;14.24;95967.31;6274742;28;20045;-71
2023/08/24 07:41:45;;;;;;;0.70;0.50;;;;;;;31.57;15.76;95962.91;6293224;28;20040;-71
2023/08/24 07:44:51;;;;;;;2.20;0.43;;;;;;;30.17;16.67;95936.69;6293239;28;20045;-71
2023/08/24 07:47:54;;;;;;;0.50;0.30;;;;;;;29.22;17.39;95954.44;6291768;28;20052;-70
2023/08/24 07:51:03;;;;;;;0.60;0.22;;;;;;;30.63;16.23;95955.63;6297662;28;20415;-70
2023/08/24 07:54:09;;;;;;;2.22;0.60;;;;;;;30.83;16.06;95947.81;6297845;28;20486;-70
2023/08/24 07:57:15;;;;;;;1.98;0.77;;;;;;;32.28;15.17;95951.94;6297894;28;20525;-70
2023/08/24 08:00:20;;;;;;;0.93;0.30;;;;;;;35.27;13.27;95962.41;6297807;28;20518;-71
2023/08/24 08:03:25;;;;;;;1.25;0.50;;;;;;;37.29;12.13;95967.03;6288958;28;20526;-71
2023/08/24 08:06:31;;;;;;;1.42;0.50;;;;;;;38.39;11.07;95969.69;6272910;28;20073;-71
2023/08/24 08:09:36;;;;;;;1.70;0.68;;;;;;;39.37;11.02;95968.84;6272583;28;20053;-71
2023/08/24 08:12:40;;;;;;;1.67;0.40;;;;;;;41.67;10.05;95971.56;6272833;28;20032;-71
2023/08/24 08:15:43;;;;;;;0.45;0.20;;;;;;;40.08;10.10;95966.50;6254028;28;20053;-72
2023/08/24 08:18:47;;;;;;;1.67;0.30;;;;;;;36.44;12.32;95960.13;6272167;28;20095;-71
2023/08/24 08:21:52;;;;;;;1.95;0.30;;;;;;;36.34;12.80;95957.47;6273000;28;20057;-71
2023/08/24 08:24:54;;;;;;;0.75;0.30;;;;;;;35.58;12.70;95951.34;6272345;28;20139;-72
2023/08/24 08:27:57;;;;;;;0.50;0.28;;;;;;;33.88;14.04;95944.38;6272058;28;20438;-71
2023/08/24 08:31:03;;;;;;;1.85;0.20;;;;;;;31.86;15.69;95939.00;6271579;28;20041;-71
2023/08/24 08:34:08;;;;;;;1.63;0.63;;;;;;;31.02;16.45;95936.66;6271944;28;20049;-71
2023/08/24 08:37:17;;;;;;;1.60;0.52;;;;;;;30.10;16.95;95943.38;6271837;28;20537;-71
2023/08/24 08:40:28;;;;;;;0.73;0.50;;;;;;;29.05;17.87;95942.69;6284038;28;20048;-70
2023/08/24 08:43:35;;;;;;;2.28;0.45;;;;;;;28.21;18.38;95941.00;6293739;28;20194;-71
2023/08/24 08:46:41;;;;;;;1.27;0.40;;;;;;;27.91;18.65;95948.34;6295810;28;20037;-71
2023/08/24 08:49:50;;;;;;;3.03;0.63;;;;;;;28.21;18.81;95938.31;6295345;28;20089;-71
2023/08/24 08:52:53;;;;;;;0.88;0.50;;;;;;;28.89;18.39;95941.50;6277791;28;20049;-71
2023/08/24 08:56:04;;;;;;;1.30;0.47;;;;;;;30.03;17.57;95943.50;6296399;28;20127;-71
2023/08/24 08:59:11;;;;;;;0.70;0.35;;;;;;;33.31;15.05;95953.44;6296226;28;20115;-71
2023/08/24 09:02:19;;;;;;;1.48;0.47;;;;;;;34.28;14.13;95945.53;6295000;28;20049;-70
2023/08/24 09:05:25;;;;;;;0.52;0.30;;;;;;;34.81;13.82;95951.53;6295927;28;20053;-70
2023/08/24 09:08:30;;;;;;;2.47;0.40;;;;;;;37.59;12.21;95959.53;6295811;28;20044;-70
2023/08/24 09:11:33;;;;;;;3.03;1.40;;;;;;;39.37;10.83;95963.34;6295798;28;20052;-70
2023/08/24 09:14:38;;;;;;;1.30;0.40;;;;;;;40.51;10.43;95958.63;6277235;28;20048;-70
2023/08/24 09:17:43;;;;;;;11.48;6.85;;;;;;;42.70;9.54;95970.03;6294776;28;20053;-70
2023/08/24 09:20:47;;;;;;;0.85;0.70;;;;;;;43.48;8.68;95966.25;6294476;28;20060;-70
2023/08/24 09:23:57;;;;;;;0.40;0.22;;;;;;;40.60;10.12;95956.75;6294874;28;20131;-70
2023/08/24 09:27:18;;;;;;;0.20;0.20;;;;;;;39.60;10.82;95947.72;6295821;28;20055;-70
2023/08/24 09:30:22;;;;;;;1.00;0.50;;;;;;;38.25;11.47;95944.91;6295708;28;20048;-70
2023/08/24 09:33:29;;;;;;;1.23;0.40;;;;;;;36.09;12.43;95939.28;6294564;28;20541;-70
2023/08/24 09:36:37;;;;;;;0.80;0.30;;;;;;;34.08;13.92;95945.53;6295420;28;20040;-70
2023/08/24 09:39:38;;;;;;;0.80;0.35;;;;;;;33.29;14.35;95931.06;6294633;28;20546;-71
2023/08/24 09:42:43;;;;;;;0.73;0.30;;;;;;;32.86;14.62;95933.03;6294463;28;20048;-71
2023/08/24 09:45:54;;;;;;;0.75;0.45;;;;;;;31.80;15.13;95917.47;6294743;28;20056;-70
2023/08/24 09:49:00;;;;;;;1.52;0.40;;;;;;;29.92;16.79;95915.41;6295068;28;20060;-70
2023/08/24 09:52:06;;;;;;;5.35;0.70;;;;;;;28.69;17.82;95916.69;6295167;28;20131;-71
2023/08/24 09:55:13;;;;;;;1.27;0.30;;;;;;;28.15;18.84;95914.91;6294297;28;20049;-70
2023/08/24 09:58:21;;;;;;;1.50;0.47;;;;;;;28.05;18.68;95922.75;6294707;28;20400;-71
2023/08/24 10:01:26;;;;;;;0.80;0.57;;;;;;;28.07;18.90;95915.25;6294619;28;20036;-71
2023/08/24 10:04:37;;;;;;;0.57;0.30;;;;;;;28.80;18.52;95919.41;6295229;28;20044;-71
2023/08/24 10:07:44;;;;;;;2.35;0.43;;;;;;;28.30;18.63;95922.56;6294513;28;20143;-71
2023/08/24 10:10:55;;;;;;;2.40;0.40;;;;;;;27.07;19.58;95913.09;6294520;28;20044;-71
2023/08/24 10:14:12;;;;;;;1.73;0.50;;;;;;;26.30;20.55;95918.00;6294492;28;20044;-71
2023/08/24 10:17:19;;;;;;;1.00;0.28;;;;;;;25.67;21.18;95916.19;6294454;28;20044;-71
2023/08/24 10:20:23;;;;;;;2.55;1.60;;;;;;;25.62;21.59;95914.19;6294388;28;20052;-71
2023/08/24 10:23:30;;;;;;;1.48;1.10;;;;;;;26.27;20.68;95916.59;6294336;28;20044;-71
2023/08/24 10:26:33;;;;;;;2.25;1.25;;;;;;;28.36;19.37;95918.91;6294084;28;20127;-71
2023/08/24 10:29:37;;;;;;;1.13;0.60;;;;;;;30.09;17.82;95915.41;6294028;28;20052;-71
2023/08/24 10:32:42;;;;;;;1.48;0.70;;;;;;;30.65;16.56;95910.03;6294079;28;20036;-71
2023/08/24 10:35:45;;;;;;;2.42;0.43;;;;;;;30.68;16.15;95911.44;6292730;28;20040;-71
2023/08/24 10:38:46;;;;;;;1.88;0.52;;;;;;;30.31;17.22;95911.97;6293068;28;20048;-71
2023/08/24 10:41:52;;;;;;;2.67;1.60;;;;;;;29.39;18.06;95910.34;6294076;28;20054;-71
2023/08/24 10:44:56;;;;;;;5.20;2.45;;;;;;;28.48;19.06;95926.22;6293977;28;20044;-71
2023/08/24 10:48:03;;;;;;;2.33;1.30;;;;;;;27.76;19.68;95924.44;6293621;28;20537;-71
2023/08/24 10:51:14;;;;;;;2.40;1.15;;;;;;;27.27;20.22;95921.78;6292732;28;20054;-71
2023/08/24 10:54:30;;;;;;;2.45;0.60;;;;;;;26.66;20.87;95906.47;6293933;28;20119;-71
2023/08/24 10:57:37;;;;;;;2.92;1.05;;;;;;;26.52;20.97;95902.28;6293831;28;20504;-71
2023/08/24 11:00:50;;;;;;;3.17;2.35;;;;;;;26.23;20.80;95898.38;6293814;28;20052;-71
2023/08/24 11:03:58;;;;;;;1.23;1.00;;;;;;;26.08;21.13;95904.94;6293957;28;20416;-71
2023/08/24 11:07:18;;;;;;;1.88;0.77;;;;;;;26.24;21.15;95908.94;6293888;28;20036;-70
2023/08/24 11:10:21;;;;;;;2.85;0.73;;;;;;;26.62;20.72;95903.41;6292624;28;20048;-70
2023/08/24 11:13:27;;;;;;;1.90;0.60;;;;;;;27.83;19.72;95900.03;6293936;28;20036;-70
2023/08/24 11:16:49;;;;;;;0.88;0.38;;;;;;;29.82;17.64;95901.66;6293946;28;20048;-70
2023/08/24 11:19:56;;;;;;;4.05;1.70;;;;;;;29.91;17.25;95908.31;6293347;28;20036;-71
2023/08/24 11:23:03;;;;;;;0.98;0.70;;;;;;;28.75;18.30;95904.91;6292450;28;20071;-71
2023/08/24 11:26:07;;;;;;;3.40;0.50;;;;;;;27.45;19.28;95869.59;6298160;28;20048;-70
2023/08/24 11:29:12;;;;;;;1.30;0.70;;;;;;;27.05;19.64;95902.50;6298582;28;20419;-70
2023/08/24 11:32:14;;;;;;;2.13;0.70;;;;;;;27.00;19.72;95893.44;6297514;28;20450;-70
2023/08/24 11:35:17;;;;;;;1.90;0.88;;;;;;;27.94;18.82;95894.66;6298238;28;20817;-71
2023/08/24 11:38:23;;;;;;;0.65;0.52;;;;;;;28.82;17.69;95895.63;6297475;28;20132;-70
2023/08/24 11:41:28;;;;;;;5.10;2.28;;;;;;;29.17;17.50;95904.75;6296703;28;20059;-70
2023/08/24 11:44:51;;;;;;;1.25;1.13;;;;;;;28.64;17.82;95901.16;6297175;28;20060;-70
2023/08/24 11:48:04;;;;;;;2.72;0.60;;;;;;;28.46;18.29;95901.31;6297476;28;20041;-70
2023/08/24 11:51:12;;;;;;;1.35;1.02;;;;;;;27.57;18.77;95888.53;6297013;28;20055;-70
2023/08/24 11:54:19;;;;;;;1.02;0.50;;;;;;;26.22;19.83;95902.97;6278790;28;20427;-70
2023/08/24 11:57:24;;;;;;;0.85;0.52;;;;;;;25.18;21.06;95891.63;6297577;28;20048;-70
2023/08/24 12:00:31;;;;;;;2.38;0.80;;;;;;;24.97;21.75;95889.25;6297569;28;20052;-70
2023/08/24 12:03:38;;;;;;;0.95;0.77;;;;;;;24.93;21.60;95902.28;6297523;28;20052;-70
2023/08/24 12:06:43;;;;;;;1.33;0.73;;;;;;;24.95;21.82;95902.88;6297208;28;20044;-70
2023/08/24 12:09:54;;;;;;;1.95;0.50;;;;;;;25.34;21.07;95901.09;6297319;28;20427;-71
2023/08/24 12:13:09;;;;;;;3.88;1.38;;;;;;;25.44;21.09;95904.13;6296335;28;20045;-69
2023/08/24 12:16:15;;;;;;;2.88;1.63;;;;;;;24.82;22.16;95906.44;6296194;28;20044;-70
2023/08/24 12:19:22;;;;;;;2.30;1.10;;;;;;;24.36;22.38;95903.84;6296869;28;20047;-70
2023/08/24 12:22:29;;;;;;;1.75;0.93;;;;;;;24.09;22.50;95903.91;6295813;28;20538;-70
2023/08/24 12:25:38;;;;;;;2.50;1.13;;;;;;;23.74;23.12;95900.56;6296846;28;20044;-70
2023/08/24 12:28:42;;;;;;;2.70;1.30;;;;;;;23.45;23.47;95901.75;6295560;28;20057;-70
2023/08/24 12:31:46;;;;;;;1.52;0.75;;;;;;;23.23;23.54;95899.22;6296782;28;20044;-70
2023/08/24 12:34:55;;;;;;;1.02;0.60;;;;;;;23.16;23.33;95903.75;6292664;28;20080;-70
2023/08/24 12:38:04;;;;;;;0.55;0.50;;;;;;;23.08;23.48;95894.03;6296176;28;20052;-70
2023/08/24 12:41:12;;;;;;;3.30;0.90;;;;;;;22.76;23.75;95887.47;6296056;28;20056;-70
2023/08/24 12:44:15;;;;;;;2.75;0.60;;;;;;;22.55;24.05;95898.28;6296560;28;20499;-70
2023/08/24 12:47:20;;;;;;;0.70;0.57;;;;;;;22.24;23.79;95894.19;6295839;28;20040;-71
2023/08/24 12:50:28;;;;;;;1.20;0.40;;;;;;;21.92;24.21;95899.09;6296063;28;20048;-72
2023/08/24 12:53:32;;;;;;;0.73;0.50;;;;;;;21.81;24.55;95899.63;6296151;28;20048;-71
2023/08/24 12:56:39;;;;;;;2.55;0.70;;;;;;;21.73;25.07;95903.25;6296203;28;20104;-71
2023/08/24 12:59:47;;;;;;;2.45;1.17;;;;;;;21.43;25.25;95891.88;6296156;28;20048;-70
2023/08/24 13:02:51;;;;;;;3.60;1.27;;;;;;;21.25;25.71;95900.28;6295344;28;20538;-71
2023/08/24 13:05:57;;;;;;;2.83;1.17;;;;;;;20.89;26.22;95908.34;6295055;28;20079;-70
2023/08/24 13:09:03;;;;;;;1.13;0.80;;;;;;;20.58;26.12;95893.34;6295631;28;20052;-71
2023/08/24 13:12:05;;;;;;;1.05;0.90;;;;;;;20.43;26.73;95905.84;6294480;28;20059;-69
2023/08/24 13:15:11;;;;;;;2.58;1.23;;;;;;;20.30;26.90;95916.34;6295730;28;20423;-69
2023/08/24 13:18:12;;;;;;;1.98;1.05;;;;;;;20.13;27.36;95913.84;6294499;28;20074;-70
2023/08/24 13:21:14;;;;;;;4.65;1.42;;;;;;;20.05;27.89;95907.75;6294539;28;20041;-71
2023/08/24 13:24:15;;;;;;;2.97;1.75;;;;;;;19.96;27.62;95901.66;6294578;28;20052;-70
2023/08/24 13:27:19;;;;;;;2.90;1.92;;;;;;;19.85;28.10;95910.13;6295301;28;20072;-70
2023/08/24 13:30:20;;;;;;;3.53;1.90;;;;;;;19.78;28.09;95917.16;6294794;28;20067;-70
2023/08/24 13:33:27;;;;;;;3.97;2.50;;;;;;;19.69;28.32;95911.06;6295430;28;20040;-70
2023/08/24 13:36:31;;;;;;;4.30;2.38;;;;;;;19.58;28.39;95917.63;6295430;28;20032;-70
2023/08/24 13:39:35;;;;;;;4.50;2.22;;;;;;;19.49;28.68;95908.03;6295376;28;20450;-70
2023/08/24 13:42:36;;;;;;;3.60;1.75;;;;;;;19.56;29.19;95914.34;6295145;28;20048;-70
2023/08/24 13:45:40;;;;;;;2.70;1.35;;;;;;;19.34;29.26;95909.81;6295161;28;20052;-69
2023/08/24 13:48:47;;;;;;;5.00;1.65;;;;;;;19.36;29.47;95923.78;6294601;28;20049;-69
2023/08/24 13:51:51;;;;;;;2.97;2.03;;;;;;;19.33;29.57;95918.81;6294513;28;20052;-72
2023/08/24 13:54:53;;;;;;;3.38;1.70;;;;;;;19.24;29.66;95926.88;6294915;28;20559;-72
2023/08/24 13:57:54;;;;;;;2.63;1.67;;;;;;;19.07;30.04;95925.31;6294683;28;20033;-71
2023/08/24 14:00:58;;;;;;;3.55;2.28;;;;;;;18.90;30.06;95939.72;6294801;28;20051;-69
2023/08/24 14:04:01;;;;;;;3.90;2.13;;;;;;;18.86;29.80;95933.94;6294759;28;20123;-69
2023/08/24 14:07:03;;;;;;;2.00;1.50;;;;;;;18.74;30.37;95941.47;6294505;28;20044;-70
2023/08/24 14:10:10;;;;;;;3.22;1.15;;;;;;;18.59;30.48;95937.81;6294394;28;20098;-70
2023/08/24 14:13:20;;;;;;;1.48;0.90;;;;;;;18.40;30.84;95945.22;6294453;28;20059;-70
2023/08/24 14:16:27;;;;;;;2.03;1.17;;;;;;;18.30;31.25;95944.56;6294270;28;20053;-70
2023/08/24 14:19:28;;;;;;;4.25;1.95;;;;;;;18.19;30.90;95942.25;6293968;28;20040;-70
2023/08/24 14:22:33;;;;;;;3.97;1.55;;;;;;;18.00;31.21;95932.81;6294000;28;20171;-70
2023/08/24 14:25:35;;;;;;;1.52;1.23;;;;;;;17.92;31.78;95946.97;6294250;28;20047;-70
2023/08/24 14:28:56;;;;;;;4.10;1.60;;;;;;;17.81;31.33;95938.50;6294082;28;20041;-70
2023/08/24 14:31:58;;;;;;;1.45;0.95;;;;;;;17.73;31.87;95941.97;6293112;28;20281;-70
2023/08/24 14:35:03;;;;;;;1.67;0.90;;;;;;;17.64;31.81;95942.97;6294098;28;20626;-70